createdAt,value
2022-09-19T00:01:50.746Z,2.55
2022-09-19T00:04:35.573Z,2.67
2022-09-19T00:07:02.255Z,2.17
2022-09-19T00:09:33.318Z,1.85
2022-09-19T00:12:00.691Z,2.33
2022-09-19T00:14:31.066Z,1.98
2022-09-19T00:17:00.264Z,2.63
2022-09-19T00:19:28.228Z,2.47
2022-09-19T00:21:58.272Z,2.28
2022-09-19T00:24:44.171Z,2.00
2022-09-19T00:27:11.654Z,1.98
2022-09-19T00:29:41.229Z,2.00
2022-09-19T00:32:08.441Z,2.10
2022-09-19T00:34:36.393Z,1.80
2022-09-19T00:37:03.233Z,1.98
2022-09-19T00:39:29.942Z,1.83
2022-09-19T00:41:56.586Z,1.95
2022-09-19T00:44:23.076Z,1.80
2022-09-19T00:46:54.141Z,2.35
2022-09-19T00:49:23.891Z,2.53
2022-09-19T00:51:54.389Z,2.67
2022-09-19T00:54:25.639Z,2.17
2022-09-19T00:56:53.714Z,2.63
2022-09-19T00:59:24.408Z,2.50
2022-09-19T01:01:57.124Z,2.35
2022-09-19T01:04:27.048Z,2.20
2022-09-19T01:06:59.927Z,2.25
2022-09-19T01:09:51.033Z,1.80
2022-09-19T01:12:27.833Z,1.45
2022-09-19T01:14:57.022Z,1.73
2022-09-19T01:18:02.857Z,2.20
2022-09-19T01:21:23.179Z,2.40
2022-09-19T01:24:15.325Z,2.53
2022-09-19T01:27:19.142Z,2.40
2022-09-19T01:30:18.913Z,2.08
2022-09-19T01:32:53.203Z,2.78
2022-09-19T01:35:27.095Z,1.95
2022-09-19T01:38:17.702Z,2.45
2022-09-19T01:40:45.498Z,2.42
2022-09-19T01:43:14.831Z,2.08
2022-09-19T01:45:42.313Z,2.20
2022-09-19T01:48:28.473Z,2.55
2022-09-19T01:50:55.012Z,2.28
2022-09-19T01:53:30.397Z,2.42
2022-09-19T01:56:07.703Z,2.40
2022-09-19T01:59:08.014Z,1.92
2022-09-19T02:01:40.511Z,1.50
2022-09-19T02:04:21.279Z,1.90
2022-09-19T02:07:08.350Z,1.58
2022-09-19T02:09:58.475Z,1.70
2022-09-19T02:12:28.375Z,1.73
2022-09-19T02:15:01.300Z,1.27
2022-09-19T02:17:51.967Z,1.58
2022-09-19T02:20:29.401Z,1.55
2022-09-19T02:23:06.284Z,1.58
2022-09-19T02:25:35.677Z,2.00
2022-09-19T02:28:13.947Z,1.90
2022-09-19T02:30:42.806Z,2.25
2022-09-19T02:33:11.501Z,2.22
2022-09-19T02:36:01.095Z,1.70
2022-09-19T02:38:45.439Z,1.92
2022-09-19T02:41:37.427Z,2.55
2022-09-19T02:44:10.236Z,2.67
2022-09-19T02:46:39.918Z,2.20
2022-09-19T02:49:08.987Z,2.17
2022-09-19T02:51:41.630Z,2.00
2022-09-19T02:54:14.927Z,2.70
2022-09-19T02:56:43.205Z,2.08
2022-09-19T02:59:19.428Z,2.25
2022-09-19T03:01:51.106Z,1.90
2022-09-19T03:04:22.508Z,2.17
2022-09-19T03:06:52.245Z,1.60
2022-09-19T03:09:23.179Z,2.05
2022-09-19T03:11:58.722Z,1.65
2022-09-19T03:14:25.982Z,2.03
2022-09-19T03:16:57.279Z,1.70
2022-09-19T03:19:25.099Z,3.10
2022-09-19T03:21:56.094Z,3.55
2022-09-19T03:24:24.046Z,3.17
2022-09-19T03:26:50.721Z,4.85
2022-09-19T03:29:17.561Z,4.35
2022-09-19T03:31:48.799Z,2.95
2022-09-19T03:34:16.630Z,4.05
2022-09-19T03:36:44.730Z,3.47
2022-09-19T03:39:11.340Z,3.03
2022-09-19T03:41:39.307Z,3.50
2022-09-19T03:44:06.886Z,3.92
2022-09-19T03:46:33.726Z,3.80
2022-09-19T03:49:02.006Z,4.55
2022-09-19T03:51:31.255Z,5.13
2022-09-19T03:53:57.874Z,5.15
2022-09-19T03:56:25.086Z,5.53
2022-09-19T03:58:51.741Z,4.22
2022-09-19T04:01:21.228Z,4.32
2022-09-19T04:03:50.185Z,3.70
2022-09-19T04:06:17.726Z,5.10
2022-09-19T04:08:44.796Z,6.40
2022-09-19T04:11:13.310Z,6.40
2022-09-19T04:13:39.916Z,7.90
2022-09-19T04:16:07.746Z,5.93
2022-09-19T04:18:35.415Z,4.35
2022-09-19T04:21:02.636Z,4.25
2022-09-19T04:23:29.248Z,4.15
2022-09-19T04:25:56.675Z,4.97
2022-09-19T04:28:24.192Z,2.35
2022-09-19T04:30:51.296Z,4.43
2022-09-19T04:33:19.354Z,2.63
2022-09-19T04:35:46.932Z,3.35
2022-09-19T04:38:18.248Z,3.47
2022-09-19T04:40:47.891Z,1.83
2022-09-19T04:43:17.694Z,1.20
2022-09-19T04:45:49.581Z,0.98
2022-09-19T04:48:18.940Z,1.10
2022-09-19T04:50:48.919Z,1.10
2022-09-19T04:53:18.095Z,1.05
2022-09-19T04:55:44.728Z,1.35
2022-09-19T04:58:12.101Z,0.98
2022-09-19T05:00:39.666Z,1.15
2022-09-19T05:03:13.725Z,1.80
2022-09-19T05:05:45.509Z,2.28
2022-09-19T05:08:16.151Z,0.90
2022-09-19T05:10:46.712Z,1.40
2022-09-19T05:13:14.374Z,1.65
2022-09-19T05:15:42.830Z,1.02
2022-09-19T05:18:11.706Z,1.50
2022-09-19T05:20:39.421Z,2.53
2022-09-19T05:23:06.742Z,2.13
2022-09-19T05:25:38.217Z,2.08
2022-09-19T05:28:08.792Z,1.67
2022-09-19T05:30:38.383Z,1.15
2022-09-19T05:33:07.676Z,0.80
2022-09-19T05:35:34.666Z,1.20
2022-09-19T05:38:01.260Z,1.25
2022-09-19T05:40:28.496Z,2.03
2022-09-19T05:43:01.445Z,1.00
2022-09-19T05:45:28.788Z,0.80
2022-09-19T05:48:03.965Z,0.98
2022-09-19T05:50:30.714Z,0.80
2022-09-19T05:53:15.878Z,0.85
2022-09-19T05:55:42.684Z,1.05
2022-09-19T05:58:10.638Z,0.90
2022-09-19T06:00:39.171Z,0.70
2022-09-19T06:03:08.541Z,1.00
2022-09-19T06:05:40.838Z,0.95
2022-09-19T06:08:08.366Z,1.42
2022-09-19T06:10:41.286Z,0.80
2022-09-19T06:13:11.818Z,0.80
2022-09-19T06:15:38.460Z,0.85
2022-09-19T06:18:05.437Z,0.80
2022-09-19T06:20:32.134Z,0.98
2022-09-19T06:23:03.782Z,0.80
2022-09-19T06:25:31.725Z,0.90
2022-09-19T06:28:00.854Z,1.13
2022-09-19T06:30:28.940Z,1.20
2022-09-19T06:32:56.163Z,2.65
2022-09-19T06:35:24.518Z,2.40
2022-09-19T06:37:51.079Z,1.70
2022-09-19T06:40:24.017Z,1.52
2022-09-19T06:42:57.633Z,1.52
2022-09-19T06:45:24.511Z,1.20
2022-09-19T06:47:51.074Z,1.60
2022-09-19T06:50:17.625Z,1.83
2022-09-19T06:52:47.933Z,1.23
2022-09-19T06:55:14.576Z,1.75
2022-09-19T06:57:41.112Z,2.13
2022-09-19T07:00:08.643Z,2.00
2022-09-19T07:02:35.267Z,2.10
2022-09-19T07:05:02.146Z,2.10
2022-09-19T07:07:29.062Z,1.23
2022-09-19T07:09:55.693Z,1.25
2022-09-19T07:12:22.242Z,1.08
2022-09-19T07:14:49.019Z,1.30
2022-09-19T07:17:17.263Z,0.98
2022-09-19T07:19:45.843Z,1.02
2022-09-19T07:22:12.946Z,1.25
2022-09-19T07:24:39.475Z,0.70
2022-09-19T07:27:06.160Z,0.43
2022-09-19T07:29:32.972Z,0.85
2022-09-19T07:32:00.295Z,0.65
2022-09-19T07:34:26.927Z,0.70
2022-09-19T07:36:54.069Z,0.80
2022-09-19T07:39:24.012Z,0.50
2022-09-19T07:41:51.838Z,0.60
2022-09-19T07:44:18.563Z,0.75
2022-09-19T07:47:05.226Z,0.80
2022-09-19T07:49:31.801Z,0.80
2022-09-19T07:51:58.325Z,0.50
2022-09-19T07:54:24.965Z,0.60
2022-09-19T07:56:51.615Z,0.70
2022-09-19T07:59:19.797Z,0.60
2022-09-19T08:01:46.734Z,0.60
2022-09-19T08:04:13.478Z,0.93
2022-09-19T08:06:40.895Z,0.60
2022-09-19T08:09:07.750Z,0.82
2022-09-19T08:11:36.664Z,0.70
2022-09-19T08:14:04.263Z,0.80
2022-09-19T08:16:30.889Z,0.80
2022-09-19T08:18:57.500Z,0.82
2022-09-19T08:21:24.962Z,1.40
2022-09-19T08:23:51.846Z,1.35
2022-09-19T08:26:18.701Z,1.10
2022-09-19T08:28:45.242Z,0.82
2022-09-19T08:31:13.324Z,2.13
2022-09-19T08:33:40.212Z,0.80
2022-09-19T08:36:07.026Z,0.82
2022-09-19T08:38:33.886Z,0.75
2022-09-19T08:41:12.783Z,0.70
2022-09-19T08:43:50.687Z,1.50
2022-09-19T08:46:23.689Z,1.42
2022-09-19T08:49:01.739Z,0.90
2022-09-19T08:51:30.636Z,0.80
2022-09-19T08:54:10.525Z,0.93
2022-09-19T08:56:39.276Z,1.02
2022-09-19T08:59:13.564Z,1.10
2022-09-19T09:01:40.825Z,1.02
2022-09-19T09:04:35.026Z,0.80
2022-09-19T09:07:35.833Z,0.93
2022-09-19T09:10:29.052Z,0.93
2022-09-19T09:13:32.277Z,0.88
2022-09-19T09:16:12.830Z,1.00
2022-09-19T09:18:47.218Z,1.10
2022-09-19T09:21:17.865Z,0.98
2022-09-19T09:23:56.261Z,1.13
2022-09-19T09:26:38.052Z,1.00
2022-09-19T09:29:16.884Z,1.60
2022-09-19T09:31:58.533Z,1.25
2022-09-19T09:34:34.541Z,1.35
2022-09-19T09:37:28.771Z,1.15
2022-09-19T09:40:11.008Z,1.20
2022-09-19T09:42:54.188Z,0.90
2022-09-19T09:45:31.479Z,1.20
2022-09-19T09:48:07.730Z,0.82
2022-09-19T09:50:49.459Z,1.10
2022-09-19T09:53:19.002Z,0.77
2022-09-19T09:56:10.247Z,1.27
2022-09-19T09:59:38.971Z,0.90
2022-09-19T10:02:46.496Z,0.75
2022-09-19T10:05:26.507Z,0.82
2022-09-19T10:08:17.941Z,0.80
2022-09-19T10:10:46.625Z,0.88
2022-09-19T10:13:48.256Z,0.80
2022-09-19T10:16:18.805Z,0.60
2022-09-19T10:18:53.758Z,0.70
2022-09-19T10:21:20.437Z,0.63
2022-09-19T10:23:47.348Z,0.60
2022-09-19T10:26:16.815Z,0.60
2022-09-19T10:29:00.360Z,0.50
2022-09-19T10:31:35.790Z,0.60
2022-09-19T10:34:08.464Z,0.70
2022-09-19T10:36:48.169Z,1.13
2022-09-19T10:39:18.161Z,0.50
2022-09-19T10:41:44.978Z,0.52
2022-09-19T10:44:24.284Z,0.68
2022-09-19T10:46:57.383Z,0.50
2022-09-19T10:49:27.594Z,0.65
2022-09-19T10:51:58.131Z,0.60
2022-09-19T10:54:37.373Z,0.70
2022-09-19T10:57:29.586Z,0.80
2022-09-19T11:00:04.102Z,0.60
2022-09-19T11:02:30.829Z,0.57
2022-09-19T11:05:06.455Z,0.43
2022-09-19T11:07:50.071Z,0.50
2022-09-19T11:10:34.725Z,0.50
2022-09-19T11:13:14.749Z,0.40
2022-09-19T11:15:56.467Z,0.40
2022-09-19T11:18:46.009Z,0.50
2022-09-19T11:21:15.347Z,0.40
2022-09-19T11:24:17.121Z,0.40
2022-09-19T11:27:07.804Z,0.30
2022-09-19T11:29:38.820Z,0.40
2022-09-19T11:35:26.011Z,0.40
2022-09-19T11:39:39.916Z,0.40
2022-09-19T11:41:13.718Z,0.40
2022-09-19T11:44:00.933Z,0.40
2022-09-19T11:46:44.534Z,0.65
2022-09-19T11:49:12.241Z,0.40
2022-09-19T11:51:51.842Z,0.40
2022-09-19T11:54:24.668Z,0.28
2022-09-19T11:57:18.748Z,0.30
2022-09-19T12:00:19.781Z,0.50
2022-09-19T12:03:31.344Z,0.40
2022-09-19T12:06:29.884Z,0.40
2022-09-19T12:09:37.314Z,0.32
2022-09-19T12:12:12.237Z,0.30
2022-09-19T12:14:44.692Z,0.40
2022-09-19T12:17:28.617Z,0.30
2022-09-19T12:20:14.206Z,0.28
2022-09-19T12:22:50.271Z,0.30
2022-09-19T12:25:24.210Z,0.30
2022-09-19T12:27:54.002Z,0.20
2022-09-19T12:30:26.651Z,0.20
2022-09-19T12:33:07.871Z,0.30
2022-09-19T12:35:44.702Z,0.40
2022-09-19T12:38:36.481Z,0.30
2022-09-19T12:41:43.472Z,0.20
2022-09-19T12:44:35.978Z,0.30
2022-09-19T12:47:05.728Z,0.30
2022-09-19T12:50:00.042Z,0.20
2022-09-19T12:52:37.387Z,0.20
2022-09-19T12:55:27.262Z,0.30
2022-09-19T12:58:20.079Z,0.30
2022-09-19T13:00:46.875Z,0.25
2022-09-19T13:03:43.801Z,0.30
2022-09-19T13:06:22.051Z,0.40
2022-09-19T13:09:04.023Z,0.30
2022-09-19T13:11:42.827Z,0.20
2022-09-19T13:14:31.648Z,0.30
2022-09-19T13:17:19.874Z,0.30
2022-09-19T13:20:06.460Z,0.30
2022-09-19T13:23:09.246Z,0.30
2022-09-19T13:25:36.925Z,0.20
2022-09-19T13:28:22.754Z,0.10
2022-09-19T13:30:59.299Z,0.10
2022-09-19T13:33:35.886Z,0.20
2022-09-19T13:36:11.118Z,0.20
2022-09-19T13:38:49.711Z,0.20
2022-09-19T13:41:29.210Z,0.20
2022-09-19T13:44:01.939Z,0.30
2022-09-19T13:46:57.850Z,0.38
2022-09-19T13:49:52.810Z,0.30
2022-09-19T13:52:24.581Z,0.17
2022-09-19T13:54:51.098Z,0.30
2022-09-19T13:57:29.659Z,0.20
2022-09-19T13:59:59.625Z,0.20
2022-09-19T14:02:34.717Z,0.20
2022-09-19T14:05:17.622Z,0.20
2022-09-19T14:10:54.762Z,0.20
2022-09-19T14:13:21.738Z,0.10
2022-09-19T14:16:00.644Z,0.20
2022-09-19T14:18:48.559Z,0.25
2022-09-19T14:21:26.982Z,0.20
2022-09-19T14:24:02.632Z,0.20
2022-09-19T14:26:56.411Z,0.30
2022-09-19T14:29:44.809Z,0.40
2022-09-19T14:32:29.850Z,0.45
2022-09-19T14:35:14.527Z,0.30
2022-09-19T14:38:06.523Z,0.30
2022-09-19T14:40:52.170Z,0.30
2022-09-19T14:44:03.523Z,0.30
2022-09-19T14:46:39.390Z,0.20
2022-09-19T14:49:31.620Z,0.20
2022-09-19T14:52:06.127Z,0.40
2022-09-19T14:54:48.369Z,0.20
2022-09-19T14:57:17.934Z,0.30
2022-09-19T14:59:45.634Z,0.28
2022-09-19T15:02:31.764Z,0.28
2022-09-19T15:05:04.525Z,0.30
2022-09-19T15:07:35.058Z,0.20
2022-09-19T15:10:02.176Z,0.30
2022-09-19T15:12:38.933Z,0.20
2022-09-19T15:15:06.629Z,0.30
2022-09-19T15:17:36.122Z,0.30
2022-09-19T15:20:05.951Z,0.20
2022-09-19T15:22:55.389Z,0.30
2022-09-19T15:25:24.179Z,0.30
2022-09-19T15:27:54.122Z,0.40
2022-09-19T15:30:38.735Z,0.50
2022-09-19T15:33:12.517Z,0.30
2022-09-19T15:35:42.574Z,0.20
2022-09-19T15:38:17.160Z,0.20
2022-09-19T15:40:44.520Z,0.30
2022-09-19T15:43:13.908Z,0.40
2022-09-19T15:45:47.142Z,0.20
2022-09-19T15:48:42.786Z,0.25
2022-09-19T15:51:28.937Z,0.30
2022-09-19T15:53:56.168Z,0.20
2022-09-19T15:56:23.954Z,0.20
2022-09-19T15:59:00.487Z,0.30
2022-09-19T16:01:37.549Z,0.20
2022-09-19T16:04:13.219Z,0.25
2022-09-19T16:07:17.874Z,0.20
2022-09-19T16:09:49.739Z,0.20
2022-09-19T16:12:45.488Z,0.20
2022-09-19T16:15:15.319Z,0.10
2022-09-19T16:17:56.768Z,0.20
2022-09-19T16:21:07.612Z,0.20
2022-09-19T16:23:41.453Z,0.20
2022-09-19T16:26:09.734Z,0.20
2022-09-19T16:28:48.715Z,0.30
2022-09-19T16:31:36.729Z,0.20
2022-09-19T16:34:10.652Z,0.40
2022-09-19T16:36:49.081Z,0.20
2022-09-19T16:39:25.879Z,0.20
2022-09-19T16:41:55.585Z,0.20
2022-09-19T16:44:26.379Z,0.45
2022-09-19T16:46:59.294Z,0.35
2022-09-19T16:49:26.313Z,0.50
2022-09-19T16:51:55.123Z,0.40
2022-09-19T16:54:22.588Z,0.73
2022-09-19T16:56:50.194Z,0.50
2022-09-19T16:59:20.609Z,0.55
2022-09-19T17:01:50.881Z,1.05
2022-09-19T17:04:21.569Z,0.85
2022-09-19T17:06:48.675Z,1.02
2022-09-19T17:09:18.114Z,0.80
2022-09-19T17:11:46.795Z,1.15
2022-09-19T17:14:21.368Z,1.10
2022-09-19T17:16:48.498Z,0.98
2022-09-19T17:19:15.208Z,1.10
2022-09-19T17:21:42.819Z,1.33
2022-09-19T17:24:12.817Z,0.80
2022-09-19T17:26:40.599Z,0.98
2022-09-19T17:29:08.460Z,0.80
2022-09-19T17:31:35.613Z,0.70
2022-09-19T17:34:07.509Z,0.60
2022-09-19T17:36:35.107Z,2.35
2022-09-19T17:39:02.939Z,0.70
2022-09-19T17:41:30.534Z,0.70
2022-09-19T17:43:57.359Z,0.55
2022-09-19T17:46:24.077Z,0.70
2022-09-19T17:48:52.601Z,0.70
2022-09-19T17:51:20.816Z,0.77
2022-09-19T17:53:47.900Z,0.77
2022-09-19T17:56:22.423Z,0.50
2022-09-19T17:58:52.475Z,0.85
2022-09-19T18:01:42.695Z,0.77
2022-09-19T18:04:10.992Z,0.50
2022-09-19T18:06:38.710Z,0.60
2022-09-19T18:09:08.324Z,0.40
2022-09-19T18:11:36.246Z,0.30
2022-09-19T18:14:03.546Z,0.30
2022-09-19T18:16:32.508Z,0.40
2022-09-19T18:19:00.673Z,0.30
2022-09-19T18:21:28.394Z,0.32
2022-09-19T18:23:57.447Z,0.32
2022-09-19T18:26:27.515Z,0.35
2022-09-19T18:28:56.738Z,0.40
2022-09-19T18:31:26.679Z,0.30
2022-09-19T18:33:53.598Z,0.20
2022-09-19T18:36:22.463Z,0.40
2022-09-19T18:38:51.729Z,0.30
2022-09-19T18:41:18.846Z,0.30
2022-09-19T18:43:46.108Z,0.40
2022-09-19T18:46:15.913Z,0.20
2022-09-19T18:48:43.561Z,0.20
2022-09-19T18:51:13.413Z,0.40
2022-09-19T18:53:41.594Z,0.40
2022-09-19T18:56:09.559Z,0.30
2022-09-19T18:58:37.018Z,0.30
2022-09-19T19:01:06.879Z,0.30
2022-09-19T19:03:36.749Z,0.25
2022-09-19T19:06:08.681Z,0.70
2022-09-19T19:08:43.412Z,0.20
2022-09-19T19:11:13.132Z,0.20
2022-09-19T19:13:41.270Z,0.20
2022-09-19T19:16:16.338Z,0.40
2022-09-19T19:18:45.283Z,0.35
2022-09-19T19:21:14.338Z,0.20
2022-09-19T19:23:41.331Z,0.20
2022-09-19T19:26:08.119Z,0.10
2022-09-19T19:28:36.462Z,0.10
2022-09-19T19:31:03.961Z,0.10
2022-09-19T19:33:31.291Z,0.10
2022-09-19T19:36:03.917Z,0.10
2022-09-19T19:38:36.538Z,0.60
2022-09-19T19:41:05.655Z,0.10
2022-09-19T19:43:34.651Z,0.10
2022-09-19T19:46:07.418Z,0.10
2022-09-19T19:48:36.668Z,0.10
2022-09-19T19:51:10.962Z,0.10
2022-09-19T19:53:37.992Z,0.10
2022-09-19T19:56:12.874Z,0.10
2022-09-19T19:58:39.821Z,0.08
2022-09-19T20:01:18.796Z,0.10
2022-09-19T20:03:54.863Z,0.10
2022-09-19T20:06:32.971Z,0.10
2022-09-19T20:09:01.538Z,0.10
2022-09-19T20:11:29.679Z,0.10
2022-09-19T20:13:58.376Z,0.10
2022-09-19T20:16:27.574Z,0.00
2022-09-19T20:18:55.475Z,0.00
2022-09-19T20:21:24.257Z,0.00
2022-09-19T20:23:51.363Z,0.00
2022-09-19T20:26:25.847Z,0.03
2022-09-19T20:28:55.258Z,0.10
2022-09-19T20:31:26.238Z,0.10
2022-09-19T20:33:53.419Z,0.10
2022-09-19T20:36:20.799Z,0.03
2022-09-19T20:38:49.106Z,0.10
2022-09-19T20:41:16.169Z,0.00
2022-09-19T20:43:42.753Z,0.00
2022-09-19T20:46:18.979Z,0.00
2022-09-19T20:48:46.227Z,0.10
2022-09-19T20:51:23.887Z,0.00
2022-09-19T20:53:54.626Z,0.00
2022-09-19T20:56:27.478Z,0.00
2022-09-19T20:58:56.467Z,0.00
2022-09-19T21:01:26.066Z,0.00
2022-09-19T21:03:53.308Z,0.00
2022-09-19T21:06:20.601Z,0.00
2022-09-19T21:08:47.853Z,0.00
2022-09-19T21:11:16.020Z,0.00
2022-09-19T21:13:45.118Z,0.10
2022-09-19T21:16:15.680Z,0.10
2022-09-19T21:18:47.297Z,0.05
2022-09-19T21:21:17.227Z,0.00
2022-09-19T21:23:44.367Z,0.00
2022-09-19T21:26:13.286Z,0.00
2022-09-19T21:28:41.639Z,0.00
2022-09-19T21:31:16.768Z,0.10
2022-09-19T21:33:44.241Z,0.05
2022-09-19T21:36:11.917Z,0.00
2022-09-19T21:38:38.812Z,0.00
2022-09-19T21:41:08.095Z,0.00
2022-09-19T21:43:43.179Z,0.00
2022-09-19T21:46:18.295Z,0.00
2022-09-19T21:48:48.747Z,0.00
2022-09-19T21:51:17.691Z,0.00
2022-09-19T21:53:53.768Z,0.10
2022-09-19T21:56:21.332Z,0.00
2022-09-19T21:58:48.011Z,0.00
2022-09-19T22:01:16.735Z,0.00
2022-09-19T22:03:44.193Z,0.00
2022-09-19T22:06:11.791Z,0.00
2022-09-19T22:08:39.288Z,0.00
2022-09-19T22:11:09.275Z,0.10
2022-09-19T22:13:37.066Z,0.00
2022-09-19T22:16:06.443Z,0.00
2022-09-19T22:18:34.552Z,0.00
2022-09-19T22:21:03.132Z,0.00
2022-09-19T22:23:37.413Z,0.00
2022-09-19T22:26:15.632Z,0.00
2022-09-19T22:28:43.694Z,0.00
2022-09-19T22:31:16.789Z,0.00
2022-09-19T22:33:45.414Z,0.00
2022-09-19T22:36:14.678Z,0.00
2022-09-19T22:38:41.310Z,0.00
2022-09-19T22:41:11.301Z,0.00
2022-09-19T22:43:40.063Z,0.00
2022-09-19T22:46:08.564Z,0.00
2022-09-19T22:48:36.233Z,0.00
2022-09-19T22:51:03.030Z,0.00
2022-09-19T22:53:34.609Z,0.00
2022-09-19T22:56:05.149Z,0.00
2022-09-19T22:58:37.047Z,0.00
2022-09-19T23:01:10.293Z,0.00
2022-09-19T23:03:37.698Z,0.00
2022-09-19T23:06:13.614Z,0.00
2022-09-19T23:08:40.672Z,0.00
2022-09-19T23:11:08.370Z,0.00
2022-09-19T23:13:48.357Z,0.00
2022-09-19T23:16:25.438Z,0.00
2022-09-19T23:18:53.927Z,0.00
2022-09-19T23:21:21.657Z,0.08
2022-09-19T23:23:50.065Z,0.00
2022-09-19T23:26:17.675Z,0.00
2022-09-19T23:28:45.023Z,0.10
2022-09-19T23:31:12.434Z,0.00
2022-09-19T23:33:39.347Z,0.10
2022-09-19T23:36:10.348Z,0.10
2022-09-19T23:38:37.068Z,0.08
2022-09-19T23:41:07.018Z,0.10
2022-09-19T23:43:34.916Z,0.20
2022-09-19T23:46:02.194Z,0.10
2022-09-19T23:48:30.193Z,0.10
2022-09-19T23:50:57.536Z,0.10
2022-09-19T23:53:25.627Z,0.10
2022-09-19T23:55:52.553Z,0.10
2022-09-19T23:58:20.585Z,0.20
